My Meet Scores
Erica Driscoll, Elite Sports Complex Inc. - MyMeetScores.com
Top100 | Top Teams | Upcoming Meets | Completed Meets | Latest | Add Scores | Help| Support | Bookmark and Share

Erica Driscoll, Elite Sports Complex Inc.
Personal Bests
LevelVault BarsBeamFloorAA
XG9.1759.275 8.9259.50036.725
XP9.3259.150 9.1509.25036.450
XS9.1509.575 9.3259.37537.275
Meet Scores
Date Meet Team Session Level Division Vault Bars Beam Floor AA
2019-05-03 2019 Region 5 Xcel Championships Elite Sports Complex Inc. 02D XP JR A 8.975 27T 9.000 15T 9.150 13T 8.950 27T 36.075 18
2019-04-05 2019 Illinois XG, XP, XD State Championships Elite Sports Complex Inc. 2 XP Jr A 9.325 10 8.725 13 9.150 16 9.250 13 36.450 11
2019-03-08 Lucky Invite Elite Sports Complex Inc. B07 XP Jr A 8.675 12T 8.650 4 8.550 5 8.850 9 34.725 5
2019-02-08 Midwest Twisters Harley Meet Womens Elite Sports Complex Inc. T01 XP 11 under 8.625 10T 9.150 1T 8.425 5 8.500 9 34.700 6
2019-01-25 King Arthur Invitational Elite Sports Complex Inc. 20 XP CH 8.850 10 7.900 11 8.550 10 9.150 11 34.450 11
2019-01-04 Leenda's Island Adventure Elite Sports Complex Inc. P03 XP 11and Unde 8.625 2 8.900 3 8.725 4 8.300 4 34.550 4
2018-12-07 St. Nick Invite 2018 Elite Sports Complex Inc. 2 XP Jr 8.975 8 8.200 8 8.425 8 8.500 9 34.100 8
2018-04-26 Xcel Region 5 Championships Elite Sports Complex Inc. 5A XG Ch C 9.000 13 8.950 14 8.800 20 9.050 26 35.800 18
2018-04-06 XCEL State Championships Elite Sports Complex Inc. 2B XG Ch B 8.900 5 9.275 15 8.925 12T 9.250 12T 36.350 7
2018-03-09 Lucky Invitational Elite Sports Complex Inc. B06 XG Jr A 8.650 13T 9.200 6 8.650 13T 9.150 19T 35.650 12
2018-02-23 Kinetic Classic Elite Sports Complex Inc. 6 XG Younger 9.175 20 9.200 26T 8.850 38T 9.500 14T 36.725 15
2018-02-08 Hal's Harley-Davidson Invite Womens Elite Sports Complex Inc. S07 XG 11 under 8.500 5 8.825 4 7.575 16 9.000 7 33.900 8T
2018-01-26 King Arthur Invitational Elite Sports Complex Inc. 9 XG JRA 9.100 3 9.225 7T 8.650 9 8.050 18 35.025 9
2018-01-04 Leenda's Island Adventure Elite Sports Complex Inc. G03 XG 11 & Under 8.850 2T 8.800 11T 8.800 7T 8.900 2 35.350 5
2017-12-08 St. Nick Invite Elite Sports Complex Inc. 7B XG JrA 8.675 5 9.075 2 8.325 10 9.300 1T 35.375 1
2017-05-11 2017 Region 5 Xcel Championships Elite Sports Complex Inc. 4B XS Ch E 9.000 15T 9.425 7T 9.200 14T 9.300 14 36.925 12T
2017-04-21 2017 Illinois Xcel State Championships Elite Sports Complex Inc. 5 XS Ch C 8.650 14T 9.450 5T 8.750 22 9.300 8T 36.150 11
2017-03-10 Lucky Invitational Elite Sports Complex Inc. B06 XS Jr A 9.150 4 9.500 5 9.325 8 9.300 2T 37.275 3
2017-02-24 Kinetic Classic Elite Sports Complex Inc. 8 XS All Ages 8.600 31T 9.575 7T 9.250 40T 9.125 19T 36.550 24
2017-02-09 Hal's Harley-Davidson Invite Elite Sports Complex Inc. S09 XS 9 under 8.550 16 9.400 6 8.800 16 9.375 4 36.125 8
2017-01-05 Leenda's Island Adventure Elite Sports Complex Inc. G10 XS 9 and Unde 8.700 3T 9.525 3 8.900 3 9.200 5 36.325 2
Get your scores on
a t-shirt, pin, or hoodie

Order by December 13

www.lazysuits.com